Aeroporto :







RITROVATECI SU...

 
LOGIN :

Iscrizione | Disclaimer

   EN    FR    IT 

 









Sommario :    VFR   VFR Marginale   IFR   IFR Intensivo   IFR Molto Intensivo
Visibilità : 
Base nubi : 
>= 8 km
>= 3000ft
5 / 8 km
1000 / 3000 ft
1500m / 5 km
500 / 1000 ft
800 / 1500m
200 / 500 ft
< 800m
< 200 ft
Simboli :   Temporali  Nebbia  Neve Forte  Precipitazioni Forti  Vento > 20 kt






- Altitudine del aeroporto : 654 ft


KAQW - Harriman and West

ULTIMO METAR :
  • 061952Z AUTO 11005KT 3SM -SN OVC021 M01/M04 A2988 RMK AO2 SLP125 P0000 T10111039 TSNO

METARs OBSOLETI :
  • 061933Z AUTO 12007KT 3SM -SN OVC022 M01/M04 A2988 RMK AO2 P0000 T10111039 TSNO
  • 061852Z AUTO 10005KT 1 3/4SM -SN BR BKN021 OVC026 M02/M04 A2989 RMK AO2 SLP129 P0002 T10171039 TSNO
  • 061845Z AUTO 10005KT 1 3/4SM -SN BR BKN021 OVC028 M02/M04 A2989 RMK AO2 P0002 T10171039 TSNO
  • 061829Z AUTO 08006KT 1SM -SN BR SCT018 OVC025 M02/M04 A2990 RMK AO2 P0001 T10171039 TSNO
  • 061752Z AUTO 08005KT 1/2SM SN BKN017 OVC023 M02/M04 A2991 RMK AO2 SLP137 P0002 60003 T10171044 11006 21033 56028 TSNO
  • 061740Z AUTO 07006KT 1SM -SN BKN022 OVC028 M02/M04 A2991 RMK AO2 P0001 T10171044 TSNO

TAF N/A



MetMap, La meteo Aeronautica in un colpo d'occhio ! - Copyright ORBIFLY Dicembre 2007 - Disclaimer

ORBIFLY MET'MAP TEAM :

Programmazione e sviluppo : Alexandra Zaïnal
Concezione : Baudouin d'Aumeries
Aiuto per la programmazione : Marc-Olivier Méhu
Supporto tecnico e logistico : Manuel Goepfert
Aiuto per la traduzione : Arnaldo La Scala

Contatto : metmap@orbifly.com




FONTI E CREDITI :

   NOAA